Lanark, Illinois
Current Conditions -  °F | °C
As of 6:55 AM on Friday 24 Oct 2014 (Local Time) from KSFY Reporting Station
Haze Haze  
Wind Chill: 48°   Ceiling: 200
Heat Index: 48°   Visibility: 1.2mi
Dew Point: 47°   Wind: 3mph
Humidity: 94%   Direction: 120°ESE
Pressure: 30.05"   Gusts: NA
Location:  42.1°N, 89.83°W
Report Text: KSFY 241155Z AUTO 12003KT 1 1/4SM BR OVC002 09/08 A3005 RMK AO2 70001 T00900081 10110 20071
Loading
Personal Weather Stations






























Interactive Weather Map New forecast layout! Learn more

10-Day Weather Forecast

Advertisements
Track Severe Weather on mobile